Time;durP1;ratioP1;P1;durP2;ratioP2;P2;SDS_P1;SDS_P2;PMS_P1;PMS_P2;Temp;Humidity;BMP_temperature;BMP_pressure;BME280_temperature;BME280_humidity;BME280_pressure;Samples;Min_cycle;Max_cycle;Signal;HPM_P1;HPM_P2
2023/12/02 00:00:54;;;;;;;;;;;0.40;99.90;;;;;;5033465;28;20010;-59
2023/12/02 00:03:20;;;;;;;;;;;0.40;99.90;;;;;;5042904;28;19928;-60
2023/12/02 00:05:50;;;;;;;;;;;0.40;99.90;;;;;;5037102;28;19933;-61
2023/12/02 00:08:17;;;;;;;;;;;0.40;99.90;;;;;;5032523;28;19936;-62
2023/12/02 00:10:44;;;;;;;;;;;0.30;99.90;;;;;;5031962;28;20375;-61
2023/12/02 00:13:11;;;;;;;;;;;0.30;99.90;;;;;;5035393;28;19968;-59
2023/12/02 00:15:38;;;;;;;;;;;0.30;99.90;;;;;;5038406;28;19932;-60
2023/12/02 00:18:05;;;;;;;;;;;0.30;99.90;;;;;;5031711;28;19932;-61
2023/12/02 00:20:32;;;;;;;;;;;0.30;99.90;;;;;;5032680;28;19925;-59
2023/12/02 00:22:59;;;;;;;;;;;0.30;99.90;;;;;;5032717;28;20622;-60
2023/12/02 00:25:25;;;;;;;;;;;0.30;99.90;;;;;;5030829;28;20330;-59
2023/12/02 00:27:52;;;;;;;;;;;0.20;99.90;;;;;;5043919;28;20536;-59
2023/12/02 00:30:19;;;;;;;;;;;0.20;99.90;;;;;;5031851;28;19968;-61
2023/12/02 00:32:46;;;;;;;;;;;0.30;99.90;;;;;;5033814;28;19925;-59
2023/12/02 00:35:13;;;;;;;;;;;0.20;99.90;;;;;;5032838;28;20311;-59
2023/12/02 00:37:40;;;;;;;;;;;0.20;99.90;;;;;;5049581;28;20318;-65
2023/12/02 00:40:07;;;;;;;;;;;0.20;99.90;;;;;;5034850;28;20015;-60
2023/12/02 00:42:34;;;;;;;;;;;0.20;99.90;;;;;;5033950;28;19929;-60
2023/12/02 00:45:01;;;;;;;;;;;0.20;99.90;;;;;;5033181;28;20422;-60
2023/12/02 00:47:28;;;;;;;;;;;0.20;99.90;;;;;;5034539;28;19926;-60
2023/12/02 00:49:58;;;;;;;;;;;0.20;99.90;;;;;;5034811;28;19928;-58
2023/12/02 00:52:25;;;;;;;;;;;0.20;99.90;;;;;;5035289;28;19983;-62
2023/12/02 00:54:52;;;;;;;;;;;0.30;99.90;;;;;;5034518;28;19979;-60
2023/12/02 00:57:18;;;;;;;;;;;0.20;99.90;;;;;;5033387;28;19929;-59
2023/12/02 00:59:45;;;;;;;;;;;0.20;99.90;;;;;;5035770;28;19925;-59
2023/12/02 01:02:12;;;;;;;;;;;0.20;99.90;;;;;;5032348;28;20498;-61
2023/12/02 01:04:39;;;;;;;;;;;0.20;99.90;;;;;;5031445;28;19929;-61
2023/12/02 01:07:06;;;;;;;;;;;0.20;99.90;;;;;;5033354;28;19925;-59
2023/12/02 01:09:32;;;;;;;;;;;0.20;99.90;;;;;;5031757;28;19972;-67
2023/12/02 01:11:59;;;;;;;;;;;0.10;99.90;;;;;;5033913;28;19929;-60
2023/12/02 01:14:26;;;;;;;;;;;0.10;99.90;;;;;;5040300;28;20434;-59
2023/12/02 01:16:53;;;;;;;;;;;0.10;99.90;;;;;;5034007;28;19951;-60
2023/12/02 01:19:20;;;;;;;;;;;0.10;99.90;;;;;;5033681;28;19932;-62
2023/12/02 01:21:47;;;;;;;;;;;0.10;99.90;;;;;;5035043;28;19926;-59
2023/12/02 01:24:14;;;;;;;;;;;0.10;99.90;;;;;;5036364;28;19932;-65
2023/12/02 01:26:41;;;;;;;;;;;0.10;99.90;;;;;;5031167;28;19933;-59
2023/12/02 01:29:08;;;;;;;;;;;0.10;99.90;;;;;;5036490;28;19931;-58
2023/12/02 01:31:35;;;;;;;;;;;0.10;99.90;;;;;;5030231;28;19961;-59
2023/12/02 01:34:01;;;;;;;;;;;0.10;99.90;;;;;;5025050;28;20424;-62
2023/12/02 01:36:28;;;;;;;;;;;0.10;99.90;;;;;;5028682;28;19936;-61
2023/12/02 01:38:55;;;;;;;;;;;0.10;99.90;;;;;;5032472;28;20002;-62
2023/12/02 01:41:23;;;;;;;;;;;0.20;99.90;;;;;;5034802;28;20356;-63
2023/12/02 01:43:50;;;;;;;;;;;0.20;99.90;;;;;;5034416;28;20329;-60
2023/12/02 01:46:17;;;;;;;;;;;0.10;99.90;;;;;;5027058;28;19932;-63
2023/12/02 01:48:44;;;;;;;;;;;0.10;99.90;;;;;;5029366;28;20387;-60
2023/12/02 01:51:11;;;;;;;;;;;0.10;99.90;;;;;;5028492;28;20360;-60
2023/12/02 01:53:39;;;;;;;;;;;0.10;99.90;;;;;;5026316;28;20653;-62
2023/12/02 01:56:06;;;;;;;;;;;0.10;99.90;;;;;;5025168;28;19925;-60
2023/12/02 01:58:35;;;;;;;;;;;0.10;99.90;;;;;;5025432;28;20040;-64
2023/12/02 02:01:04;;;;;;;;;;;0.10;99.90;;;;;;5032784;28;19932;-59
2023/12/02 02:03:31;;;;;;;;;;;0.10;99.90;;;;;;5021611;28;20406;-61
2023/12/02 02:05:59;;;;;;;;;;;0.00;99.90;;;;;;5023555;28;20027;-61
2023/12/02 02:08:26;;;;;;;;;;;0.10;99.90;;;;;;5028214;28;19925;-63
2023/12/02 02:10:59;;;;;;;;;;;0.10;99.90;;;;;;5024797;28;19929;-63
2023/12/02 02:13:27;;;;;;;;;;;0.10;99.90;;;;;;5029722;28;19932;-65
2023/12/02 02:15:54;;;;;;;;;;;0.10;99.90;;;;;;5028892;28;19925;-61
2023/12/02 02:18:21;;;;;;;;;;;0.10;99.90;;;;;;5029587;28;20426;-61
2023/12/02 02:20:52;;;;;;;;;;;0.10;99.90;;;;;;5027663;28;19925;-64
2023/12/02 02:23:20;;;;;;;;;;;0.10;99.90;;;;;;5023846;28;19925;-62
2023/12/02 02:25:51;;;;;;;;;;;0.10;99.90;;;;;;5031632;28;19929;-63
2023/12/02 02:28:21;;;;;;;;;;;0.10;99.90;;;;;;5028686;28;20380;-60
2023/12/02 02:30:48;;;;;;;;;;;0.10;99.90;;;;;;5030361;28;19929;-61
2023/12/02 02:33:15;;;;;;;;;;;0.20;99.90;;;;;;5023439;28;20015;-61
2023/12/02 02:35:43;;;;;;;;;;;0.30;99.90;;;;;;5026141;28;19929;-64
2023/12/02 02:38:12;;;;;;;;;;;0.30;99.90;;;;;;5033692;28;20338;-59
2023/12/02 02:40:39;;;;;;;;;;;0.50;99.90;;;;;;5029217;28;19925;-63
2023/12/02 02:43:06;;;;;;;;;;;0.50;99.90;;;;;;5032052;28;20019;-59
2023/12/02 02:45:33;;;;;;;;;;;0.60;99.90;;;;;;5031042;28;19933;-60
2023/12/02 02:48:00;;;;;;;;;;;0.70;99.90;;;;;;5028824;28;19957;-60
2023/12/02 02:50:27;;;;;;;;;;;0.70;99.90;;;;;;5028454;28;19926;-59
2023/12/02 02:52:54;;;;;;;;;;;0.80;99.90;;;;;;5030189;28;20397;-61
2023/12/02 02:55:21;;;;;;;;;;;0.80;99.90;;;;;;5032025;28;19933;-59
2023/12/02 02:57:48;;;;;;;;;;;0.90;99.90;;;;;;5017824;28;20539;-60
2023/12/02 03:00:15;;;;;;;;;;;0.90;99.90;;;;;;5030119;28;19976;-62
2023/12/02 03:02:42;;;;;;;;;;;0.90;99.90;;;;;;5024628;28;20000;-62
2023/12/02 03:05:08;;;;;;;;;;;0.90;99.90;;;;;;5024651;28;20459;-61
2023/12/02 03:07:35;;;;;;;;;;;0.90;99.90;;;;;;5027251;28;19936;-62
2023/12/02 03:10:02;;;;;;;;;;;0.90;99.90;;;;;;5021596;28;19925;-64
2023/12/02 03:12:29;;;;;;;;;;;0.90;99.90;;;;;;5026348;28;19980;-59
2023/12/02 03:14:56;;;;;;;;;;;1.00;99.90;;;;;;5031168;28;19979;-64
2023/12/02 03:17:23;;;;;;;;;;;0.90;99.90;;;;;;5029842;28;19925;-60
2023/12/02 03:19:50;;;;;;;;;;;0.90;99.90;;;;;;5026441;28;19932;-60
2023/12/02 03:22:17;;;;;;;;;;;0.90;99.90;;;;;;5025059;28;19991;-62
2023/12/02 03:24:45;;;;;;;;;;;0.90;99.90;;;;;;5027301;28;19937;-60
2023/12/02 03:27:11;;;;;;;;;;;0.90;99.90;;;;;;5027069;28;19980;-62
2023/12/02 03:29:38;;;;;;;;;;;0.90;99.90;;;;;;5025550;28;19929;-63
2023/12/02 03:32:05;;;;;;;;;;;0.90;99.90;;;;;;5024440;28;19925;-62
2023/12/02 03:34:32;;;;;;;;;;;0.90;99.90;;;;;;5024494;28;20024;-60
2023/12/02 03:36:58;;;;;;;;;;;0.90;99.90;;;;;;5034286;28;19929;-59
2023/12/02 03:39:25;;;;;;;;;;;0.90;99.90;;;;;;5025031;28;20425;-59
2023/12/02 03:41:52;;;;;;;;;;;0.90;99.90;;;;;;5028923;28;19971;-61
2023/12/02 03:44:19;;;;;;;;;;;1.00;99.90;;;;;;5023752;28;19968;-60
2023/12/02 03:46:46;;;;;;;;;;;1.00;99.90;;;;;;5025178;28;20672;-60
2023/12/02 03:49:13;;;;;;;;;;;1.00;99.90;;;;;;5032003;28;20531;-61
2023/12/02 03:51:39;;;;;;;;;;;1.00;99.90;;;;;;5023308;28;19935;-64
2023/12/02 03:54:06;;;;;;;;;;;0.90;99.90;;;;;;5026916;28;19959;-59
2023/12/02 03:56:34;;;;;;;;;;;1.00;99.90;;;;;;5024199;28;19951;-60
2023/12/02 03:59:01;;;;;;;;;;;1.00;99.90;;;;;;5027898;28;19936;-61
2023/12/02 04:01:28;;;;;;;;;;;1.00;99.90;;;;;;5039557;28;19932;-59
2023/12/02 04:03:54;;;;;;;;;;;1.00;99.90;;;;;;5033337;28;19928;-60
2023/12/02 04:06:21;;;;;;;;;;;1.00;99.90;;;;;;5032031;28;19968;-64
2023/12/02 04:08:48;;;;;;;;;;;1.00;99.90;;;;;;5033978;28;19931;-58
2023/12/02 04:11:15;;;;;;;;;;;1.00;99.90;;;;;;5031439;28;20522;-60
2023/12/02 04:13:41;;;;;;;;;;;1.00;99.90;;;;;;5029212;28;19936;-65
2023/12/02 04:16:08;;;;;;;;;;;1.00;99.90;;;;;;5026907;28;19925;-60
2023/12/02 04:18:35;;;;;;;;;;;1.00;99.90;;;;;;5032021;28;19980;-60
2023/12/02 04:21:04;;;;;;;;;;;1.00;99.90;;;;;;5033354;28;20624;-64
2023/12/02 04:23:31;;;;;;;;;;;1.00;99.90;;;;;;5036750;28;19932;-59
2023/12/02 04:25:58;;;;;;;;;;;0.90;99.90;;;;;;5031192;28;19925;-63
2023/12/02 04:28:24;;;;;;;;;;;0.90;99.90;;;;;;5036492;28;20386;-61
2023/12/02 04:30:52;;;;;;;;;;;0.90;99.90;;;;;;5027687;28;20031;-59
2023/12/02 04:33:18;;;;;;;;;;;0.90;99.90;;;;;;5034770;28;19925;-60
2023/12/02 04:35:46;;;;;;;;;;;0.90;99.90;;;;;;5030362;28;19931;-61
2023/12/02 04:38:13;;;;;;;;;;;0.90;99.90;;;;;;5033958;28;19925;-59
2023/12/02 04:40:39;;;;;;;;;;;0.90;99.90;;;;;;5033162;28;20361;-66
2023/12/02 04:43:06;;;;;;;;;;;0.90;99.90;;;;;;5030204;28;19937;-59
2023/12/02 04:45:33;;;;;;;;;;;0.90;99.90;;;;;;5033321;28;20031;-59
2023/12/02 04:48:00;;;;;;;;;;;0.90;99.90;;;;;;5030239;28;19933;-62
2023/12/02 04:50:27;;;;;;;;;;;0.90;99.90;;;;;;5030397;28;19925;-59
2023/12/02 04:52:54;;;;;;;;;;;0.90;99.90;;;;;;5029475;28;19940;-59
2023/12/02 04:55:21;;;;;;;;;;;0.80;99.90;;;;;;5028895;28;20023;-59
2023/12/02 04:57:48;;;;;;;;;;;0.80;99.90;;;;;;5031278;28;20408;-59
2023/12/02 05:00:16;;;;;;;;;;;0.80;99.90;;;;;;5030159;28;19932;-60
2023/12/02 05:02:43;;;;;;;;;;;0.80;99.90;;;;;;5029116;28;19934;-60
2023/12/02 05:05:10;;;;;;;;;;;0.80;99.90;;;;;;5023434;28;19933;-61
2023/12/02 05:07:37;;;;;;;;;;;0.80;99.90;;;;;;5030808;28;19984;-64
2023/12/02 05:10:04;;;;;;;;;;;0.80;99.90;;;;;;5035869;28;20011;-59
2023/12/02 05:12:31;;;;;;;;;;;0.80;99.90;;;;;;5027575;28;19925;-59
2023/12/02 05:14:58;;;;;;;;;;;0.80;99.90;;;;;;5028845;28;19929;-64
2023/12/02 05:17:25;;;;;;;;;;;0.80;99.90;;;;;;5030735;28;19925;-59
2023/12/02 05:19:53;;;;;;;;;;;0.80;99.90;;;;;;5028128;28;19929;-59
2023/12/02 05:22:20;;;;;;;;;;;0.80;99.90;;;;;;5029009;28;20376;-60
2023/12/02 05:24:47;;;;;;;;;;;0.80;99.90;;;;;;5027553;28;20020;-60
2023/12/02 05:27:13;;;;;;;;;;;0.80;99.90;;;;;;5033525;28;20007;-60
2023/12/02 05:29:40;;;;;;;;;;;0.80;99.90;;;;;;5032551;28;19932;-65
2023/12/02 05:32:07;;;;;;;;;;;0.80;99.90;;;;;;5039394;28;20390;-60
2023/12/02 05:34:34;;;;;;;;;;;0.80;99.90;;;;;;5032904;28;19976;-60
2023/12/02 05:37:02;;;;;;;;;;;0.80;99.90;;;;;;5033408;28;19931;-60
2023/12/02 05:39:29;;;;;;;;;;;0.80;99.90;;;;;;5029423;28;19928;-62
2023/12/02 05:41:56;;;;;;;;;;;0.80;99.90;;;;;;5030098;28;19929;-60
2023/12/02 05:44:23;;;;;;;;;;;0.80;99.90;;;;;;5024132;28;20043;-59
2023/12/02 05:46:50;;;;;;;;;;;0.80;99.90;;;;;;5025384;28;20541;-60
2023/12/02 05:49:17;;;;;;;;;;;0.80;99.90;;;;;;5027883;28;20319;-60
2023/12/02 05:51:44;;;;;;;;;;;0.80;99.90;;;;;;5030912;28;19929;-61
2023/12/02 05:54:11;;;;;;;;;;;0.80;99.90;;;;;;5026593;28;19929;-59
2023/12/02 05:56:37;;;;;;;;;;;0.80;99.90;;;;;;5029224;28;19932;-59
2023/12/02 05:59:04;;;;;;;;;;;0.80;99.90;;;;;;5028687;28;20354;-59
2023/12/02 06:01:31;;;;;;;;;;;0.80;99.90;;;;;;5028271;28;19925;-62
2023/12/02 06:03:58;;;;;;;;;;;0.70;99.90;;;;;;5025120;28;19936;-63
2023/12/02 06:06:25;;;;;;;;;;;0.70;99.90;;;;;;5027475;28;19952;-59
2023/12/02 06:08:52;;;;;;;;;;;0.70;99.90;;;;;;5030648;28;19925;-61
2023/12/02 06:11:19;;;;;;;;;;;0.70;99.90;;;;;;5029639;28;19929;-60
2023/12/02 06:13:45;;;;;;;;;;;0.80;99.90;;;;;;5031276;28;19932;-60
2023/12/02 06:16:13;;;;;;;;;;;0.70;99.90;;;;;;5023181;28;19925;-59
2023/12/02 06:18:39;;;;;;;;;;;0.70;99.90;;;;;;5032433;28;19929;-65
2023/12/02 06:21:07;;;;;;;;;;;0.70;99.90;;;;;;5026454;28;20371;-59
2023/12/02 06:23:33;;;;;;;;;;;0.70;99.90;;;;;;5032120;28;19979;-59
2023/12/02 06:26:00;;;;;;;;;;;0.70;99.90;;;;;;5028577;28;19933;-58
2023/12/02 06:28:27;;;;;;;;;;;0.70;99.90;;;;;;5030623;28;19941;-61
2023/12/02 06:30:54;;;;;;;;;;;0.70;99.90;;;;;;5028738;28;19931;-60
2023/12/02 06:33:21;;;;;;;;;;;0.70;99.90;;;;;;5031272;28;19933;-61
2023/12/02 06:35:48;;;;;;;;;;;0.70;99.90;;;;;;5030450;28;19925;-62
2023/12/02 06:38:14;;;;;;;;;;;0.70;99.90;;;;;;5031259;28;19929;-60
2023/12/02 06:40:41;;;;;;;;;;;0.70;99.90;;;;;;5031173;28;19936;-61
2023/12/02 06:43:10;;;;;;;;;;;0.70;99.90;;;;;;5029512;28;19975;-59
2023/12/02 06:45:37;;;;;;;;;;;0.70;99.90;;;;;;5035959;28;19936;-61
2023/12/02 06:48:04;;;;;;;;;;;0.70;99.90;;;;;;5028931;28;20084;-61
2023/12/02 06:50:31;;;;;;;;;;;0.70;99.90;;;;;;5031429;28;20029;-65
2023/12/02 06:52:58;;;;;;;;;;;0.70;99.90;;;;;;5025973;28;20027;-59
2023/12/02 06:55:27;;;;;;;;;;;0.70;99.90;;;;;;5030724;28;19933;-59
2023/12/02 06:57:58;;;;;;;;;;;0.70;99.90;;;;;;5024276;28;19972;-62
2023/12/02 07:00:25;;;;;;;;;;;0.60;99.90;;;;;;5029911;28;19971;-62
2023/12/02 07:02:52;;;;;;;;;;;0.60;99.90;;;;;;5029933;28;19932;-63
2023/12/02 07:05:19;;;;;;;;;;;0.60;99.90;;;;;;5036560;28;19944;-63
2023/12/02 07:07:46;;;;;;;;;;;0.60;99.90;;;;;;5036762;28;19932;-61
2023/12/02 07:10:13;;;;;;;;;;;0.60;99.90;;;;;;5027972;28;19952;-62
2023/12/02 07:12:40;;;;;;;;;;;0.60;99.90;;;;;;5035677;28;20028;-62
2023/12/02 07:15:07;;;;;;;;;;;0.60;99.90;;;;;;5031719;28;19948;-59
2023/12/02 07:17:34;;;;;;;;;;;0.50;99.90;;;;;;5025962;28;20005;-60
2023/12/02 07:20:01;;;;;;;;;;;0.50;99.90;;;;;;5031113;28;19925;-61
2023/12/02 07:22:28;;;;;;;;;;;0.50;99.90;;;;;;5028466;28;19932;-58
2023/12/02 07:24:55;;;;;;;;;;;0.50;99.90;;;;;;5029900;28;19925;-59
2023/12/02 07:27:22;;;;;;;;;;;0.60;99.90;;;;;;5033033;28;19983;-64
2023/12/02 07:29:51;;;;;;;;;;;0.50;99.90;;;;;;5028007;28;19933;-62
2023/12/02 07:32:21;;;;;;;;;;;0.50;99.90;;;;;;5031285;28;19952;-61
2023/12/02 07:34:47;;;;;;;;;;;0.50;99.90;;;;;;5025904;28;19924;-59
2023/12/02 07:37:14;;;;;;;;;;;0.50;99.90;;;;;;5031074;28;19931;-60
2023/12/02 07:39:41;;;;;;;;;;;0.50;99.90;;;;;;5028684;28;20014;-62
2023/12/02 07:42:08;;;;;;;;;;;0.50;99.90;;;;;;5032200;28;19936;-60
2023/12/02 07:44:35;;;;;;;;;;;0.50;99.90;;;;;;5037296;28;19931;-60
2023/12/02 07:47:01;;;;;;;;;;;0.50;99.90;;;;;;5031626;28;19929;-60
2023/12/02 07:49:28;;;;;;;;;;;0.50;99.90;;;;;;5034190;28;21287;-67
2023/12/02 07:51:55;;;;;;;;;;;0.50;99.90;;;;;;5030043;28;20749;-60
2023/12/02 07:54:22;;;;;;;;;;;0.50;99.90;;;;;;5028683;28;20342;-59
2023/12/02 07:56:49;;;;;;;;;;;0.50;99.90;;;;;;5033106;28;19935;-62
2023/12/02 07:59:16;;;;;;;;;;;0.50;99.90;;;;;;5032138;28;20020;-60
2023/12/02 08:01:42;;;;;;;;;;;0.50;99.90;;;;;;5035128;28;20495;-62
2023/12/02 08:04:09;;;;;;;;;;;0.50;99.90;;;;;;5039094;28;19987;-67
2023/12/02 08:06:36;;;;;;;;;;;0.50;99.90;;;;;;5030182;28;20326;-59
2023/12/02 08:09:03;;;;;;;;;;;0.50;99.90;;;;;;5031138;28;20272;-64
2023/12/02 08:11:30;;;;;;;;;;;0.50;99.90;;;;;;5030229;28;21376;-62
2023/12/02 08:13:57;;;;;;;;;;;0.50;99.90;;;;;;5030156;28;20259;-58
2023/12/02 08:16:24;;;;;;;;;;;0.50;99.90;;;;;;5034382;28;19929;-61
2023/12/02 08:18:51;;;;;;;;;;;0.60;99.90;;;;;;5037194;28;19952;-60
2023/12/02 08:21:18;;;;;;;;;;;0.60;99.90;;;;;;5036010;28;20020;-61
2023/12/02 08:23:45;;;;;;;;;;;0.60;99.90;;;;;;5033300;28;19924;-60
2023/12/02 08:26:11;;;;;;;;;;;0.70;99.90;;;;;;5034668;28;19929;-61
2023/12/02 08:28:38;;;;;;;;;;;0.70;99.90;;;;;;5035518;28;19925;-58
2023/12/02 08:31:05;;;;;;;;;;;0.70;99.90;;;;;;5030371;28;19964;-59
2023/12/02 08:33:32;;;;;;;;;;;0.70;99.90;;;;;;5036137;28;20025;-62
2023/12/02 08:35:59;;;;;;;;;;;0.70;99.90;;;;;;5034138;28;19929;-61
2023/12/02 08:38:32;;;;;;;;;;;0.60;99.90;;;;;;5031909;28;19933;-59
2023/12/02 08:41:02;;;;;;;;;;;0.60;99.90;;;;;;5033232;28;19925;-61
2023/12/02 08:43:29;;;;;;;;;;;0.60;99.90;;;;;;5033184;28;19925;-59
2023/12/02 08:45:56;;;;;;;;;;;0.60;99.90;;;;;;5041433;28;20442;-66
2023/12/02 08:48:24;;;;;;;;;;;0.70;99.90;;;;;;5035727;28;20664;-60
2023/12/02 08:50:51;;;;;;;;;;;0.70;99.90;;;;;;5029502;28;19937;-60
2023/12/02 08:53:18;;;;;;;;;;;0.70;99.90;;;;;;5031603;28;19925;-58
2023/12/02 08:55:45;;;;;;;;;;;0.70;99.90;;;;;;5032202;28;19924;-60
2023/12/02 08:58:12;;;;;;;;;;;0.70;99.90;;;;;;5033525;28;19925;-59
2023/12/02 09:00:39;;;;;;;;;;;0.70;99.90;;;;;;5029014;28;20312;-60
2023/12/02 09:03:06;;;;;;;;;;;0.80;99.90;;;;;;5034440;28;19968;-59
2023/12/02 09:05:33;;;;;;;;;;;0.80;99.90;;;;;;5031664;28;19929;-58
2023/12/02 09:08:01;;;;;;;;;;;0.80;99.90;;;;;;5029072;28;19925;-60
2023/12/02 09:10:28;;;;;;;;;;;0.80;99.90;;;;;;5033991;28;19956;-58
2023/12/02 09:12:55;;;;;;;;;;;0.80;99.90;;;;;;5029275;28;19959;-61
2023/12/02 09:15:22;;;;;;;;;;;0.80;99.90;;;;;;5035698;28;20601;-59
2023/12/02 09:17:52;;;;;;;;;;;0.90;99.90;;;;;;5034547;28;20389;-61
2023/12/02 09:20:39;;;;;;;;;;;0.80;99.90;;;;;;5031856;28;19929;-62
2023/12/02 09:23:06;;;;;;;;;;;0.80;99.90;;;;;;5030178;28;20016;-59
2023/12/02 09:25:35;;;;;;;;;;;0.90;99.90;;;;;;5031740;28;19940;-63
2023/12/02 09:28:05;;;;;;;;;;;0.90;99.90;;;;;;5036369;28;19961;-62
2023/12/02 09:30:42;;;;;;;;;;;0.90;99.90;;;;;;5028579;28;19928;-61
2023/12/02 09:33:09;;;;;;;;;;;0.90;99.90;;;;;;5034131;28;19974;-60
2023/12/02 09:35:36;;;;;;;;;;;0.90;99.90;;;;;;5027649;28;20015;-59
2023/12/02 09:38:03;;;;;;;;;;;0.90;99.90;;;;;;5051717;28;20028;-61
2023/12/02 09:40:42;;;;;;;;;;;0.90;99.90;;;;;;5033826;28;19936;-59
2023/12/02 09:43:27;;;;;;;;;;;0.90;99.90;;;;;;5031411;28;20438;-59
2023/12/02 09:45:57;;;;;;;;;;;1.00;99.90;;;;;;5030090;28;19933;-63
2023/12/02 09:48:24;;;;;;;;;;;0.90;99.90;;;;;;5037116;28;19956;-60
2023/12/02 09:51:10;;;;;;;;;;;0.90;99.90;;;;;;5031156;28;19955;-64
2023/12/02 09:53:56;;;;;;;;;;;0.90;99.90;;;;;;5030453;28;20649;-60
2023/12/02 09:56:29;;;;;;;;;;;0.90;99.90;;;;;;5031204;28;19961;-60
2023/12/02 09:59:03;;;;;;;;;;;0.90;99.90;;;;;;5032232;28;19929;-60
2023/12/02 10:01:56;;;;;;;;;;;0.90;99.90;;;;;;5029183;28;19933;-59
2023/12/02 10:04:44;;;;;;;;;;;0.90;99.90;;;;;;5029494;28;20007;-59
2023/12/02 10:07:23;;;;;;;;;;;0.90;99.90;;;;;;5028528;28;20294;-59
2023/12/02 10:09:53;;;;;;;;;;;0.90;99.90;;;;;;5030162;28;20382;-60
2023/12/02 10:12:35;;;;;;;;;;;0.90;99.90;;;;;;5031309;28;19926;-59
2023/12/02 10:15:05;;;;;;;;;;;0.90;99.90;;;;;;5027729;28;20431;-61
2023/12/02 10:17:40;;;;;;;;;;;0.90;99.90;;;;;;5033960;28;19924;-60
2023/12/02 10:20:11;;;;;;;;;;;0.90;99.90;;;;;;5045820;28;20299;-60
2023/12/02 10:22:44;;;;;;;;;;;0.90;99.90;;;;;;5028376;28;19929;-63
2023/12/02 10:25:31;;;;;;;;;;;0.90;99.90;;;;;;5035299;28;19925;-58
2023/12/02 10:28:05;;;;;;;;;;;0.90;99.90;;;;;;5031796;28;19929;-63
2023/12/02 10:30:35;;;;;;;;;;;0.90;99.90;;;;;;5030505;28;19937;-60
2023/12/02 10:33:21;;;;;;;;;;;0.90;99.90;;;;;;5033977;28;19928;-60
2023/12/02 10:35:48;;;;;;;;;;;0.80;99.90;;;;;;5026850;28;19932;-60
2023/12/02 10:38:25;;;;;;;;;;;0.80;99.90;;;;;;5031919;28;19933;-60
2023/12/02 10:41:00;;;;;;;;;;;0.80;99.90;;;;;;5029493;28;19972;-58
2023/12/02 10:43:32;;;;;;;;;;;0.80;99.90;;;;;;5034090;28;19932;-60
2023/12/02 10:45:59;;;;;;;;;;;0.80;99.90;;;;;;5035160;28;19929;-60
2023/12/02 10:48:26;;;;;;;;;;;0.90;99.90;;;;;;5049637;28;20527;-62
2023/12/02 10:50:53;;;;;;;;;;;0.90;99.90;;;;;;5054080;28;20382;-58
2023/12/02 10:53:21;;;;;;;;;;;0.90;99.90;;;;;;5051385;28;20364;-60
2023/12/02 10:55:53;;;;;;;;;;;0.90;99.90;;;;;;5046850;28;19925;-58
2023/12/02 10:58:20;;;;;;;;;;;1.00;99.90;;;;;;5046375;28;19947;-61
2023/12/02 11:00:51;;;;;;;;;;;1.00;99.90;;;;;;5049483;28;19929;-61
2023/12/02 11:03:27;;;;;;;;;;;0.90;99.90;;;;;;5054201;28;20485;-64
2023/12/02 11:06:05;;;;;;;;;;;1.00;99.90;;;;;;5052702;28;19964;-61
2023/12/02 11:08:55;;;;;;;;;;;0.90;99.90;;;;;;5050695;28;19982;-60
2023/12/02 11:11:46;;;;;;;;;;;0.90;99.90;;;;;;5043569;28;20056;-59
2023/12/02 11:14:16;;;;;;;;;;;0.90;99.90;;;;;;5050012;28;20607;-64
2023/12/02 11:16:49;;;;;;;;;;;0.90;99.90;;;;;;5054210;28;19940;-66
2023/12/02 11:19:35;;;;;;;;;;;0.90;99.90;;;;;;5047887;28;19932;-59
2023/12/02 11:22:02;;;;;;;;;;;0.90;99.90;;;;;;5053282;28;20028;-65
2023/12/02 11:24:32;;;;;;;;;;;0.80;99.90;;;;;;5050016;28;19935;-63
2023/12/02 11:27:14;;;;;;;;;;;0.80;99.90;;;;;;5055136;28;19936;-58
2023/12/02 11:29:53;;;;;;;;;;;0.80;99.90;;;;;;5049928;28;20379;-63
2023/12/02 11:32:31;;;;;;;;;;;0.70;99.90;;;;;;5047591;28;19932;-60
2023/12/02 11:35:18;;;;;;;;;;;0.70;99.90;;;;;;5055313;28;20561;-58
2023/12/02 11:37:58;;;;;;;;;;;0.70;99.90;;;;;;5048453;28;19933;-62
2023/12/02 11:40:31;;;;;;;;;;;0.70;99.90;;;;;;5050120;28;19925;-62
2023/12/02 11:43:13;;;;;;;;;;;0.70;99.90;;;;;;5050148;28;19925;-59
2023/12/02 11:45:42;;;;;;;;;;;0.70;99.90;;;;;;5041314;28;20363;-59
2023/12/02 11:48:09;;;;;;;;;;;0.70;99.90;;;;;;5054330;28;19999;-61
2023/12/02 11:50:56;;;;;;;;;;;0.80;99.90;;;;;;5051320;28;19928;-61
2023/12/02 11:53:23;;;;;;;;;;;0.70;99.90;;;;;;5050433;28;20359;-60
2023/12/02 11:56:17;;;;;;;;;;;0.70;99.90;;;;;;5051227;28;20349;-60
2023/12/02 11:58:51;;;;;;;;;;;0.70;99.90;;;;;;5050490;28;19936;-61
2023/12/02 12:01:20;;;;;;;;;;;0.70;99.90;;;;;;5041887;28;19936;-64
2023/12/02 12:03:47;;;;;;;;;;;0.70;99.90;;;;;;5042442;28;19929;-61
2023/12/02 12:06:29;;;;;;;;;;;0.70;99.90;;;;;;5054736;28;19979;-58
2023/12/02 12:09:09;;;;;;;;;;;0.70;99.90;;;;;;5050005;28;19972;-61
2023/12/02 12:11:36;;;;;;;;;;;0.70;99.90;;;;;;5049682;28;21704;-61
2023/12/02 12:14:05;;;;;;;;;;;0.70;99.90;;;;;;5059171;28;20043;-62
2023/12/02 12:16:32;;;;;;;;;;;0.70;99.90;;;;;;5045875;28;19932;-60
2023/12/02 12:19:08;;;;;;;;;;;0.70;99.90;;;;;;5050591;28;20459;-59
2023/12/02 12:21:35;;;;;;;;;;;0.70;99.90;;;;;;5043355;28;19933;-60
2023/12/02 12:24:02;;;;;;;;;;;0.80;99.90;;;;;;5051246;28;20019;-58
2023/12/02 12:26:30;;;;;;;;;;;0.80;99.90;;;;;;5053369;28;19929;-59
2023/12/02 12:28:57;;;;;;;;;;;0.80;99.90;;;;;;5053864;28;20035;-61
2023/12/02 12:31:28;;;;;;;;;;;0.80;99.90;;;;;;5048724;28;19932;-61
2023/12/02 12:33:56;;;;;;;;;;;0.80;99.90;;;;;;5052422;28;19979;-65
2023/12/02 12:36:28;;;;;;;;;;;0.80;99.90;;;;;;5051393;28;20010;-58
2023/12/02 12:38:59;;;;;;;;;;;0.70;99.90;;;;;;5049788;28;19931;-62
2023/12/02 12:41:26;;;;;;;;;;;0.80;99.90;;;;;;5053612;28;20051;-61
2023/12/02 12:43:53;;;;;;;;;;;0.80;99.90;;;;;;5044537;28;19961;-59
2023/12/02 12:46:20;;;;;;;;;;;0.70;99.90;;;;;;5038042;28;20481;-58
2023/12/02 12:48:51;;;;;;;;;;;0.70;99.90;;;;;;5057868;28;19983;-61
2023/12/02 12:51:19;;;;;;;;;;;0.70;99.90;;;;;;5052309;28;19976;-59
2023/12/02 12:53:52;;;;;;;;;;;0.70;99.90;;;;;;5050202;28;19928;-63
2023/12/02 12:56:26;;;;;;;;;;;0.70;99.90;;;;;;5054956;28;20294;-60
2023/12/02 12:58:58;;;;;;;;;;;0.80;99.90;;;;;;5053312;28;19944;-62
2023/12/02 13:01:28;;;;;;;;;;;0.80;99.90;;;;;;5033693;28;20044;-60
2023/12/02 13:04:10;;;;;;;;;;;0.80;99.90;;;;;;5049414;28;19933;-62
2023/12/02 13:06:37;;;;;;;;;;;0.80;99.90;;;;;;5053507;28;20024;-62
2023/12/02 13:09:05;;;;;;;;;;;0.70;99.90;;;;;;5052117;28;19933;-60
2023/12/02 13:11:34;;;;;;;;;;;0.80;99.90;;;;;;5051132;28;19925;-59
2023/12/02 13:14:10;;;;;;;;;;;0.70;99.90;;;;;;5052327;28;19968;-58
2023/12/02 13:16:37;;;;;;;;;;;0.70;99.90;;;;;;5054391;28;19972;-58
2023/12/02 13:19:05;;;;;;;;;;;0.70;99.90;;;;;;5047040;28;19924;-61
2023/12/02 13:21:32;;;;;;;;;;;0.70;99.90;;;;;;5048318;28;19939;-58
2023/12/02 13:24:01;;;;;;;;;;;0.70;99.90;;;;;;5047375;28;19930;-58
2023/12/02 13:26:33;;;;;;;;;;;0.70;99.90;;;;;;5051857;28;19982;-60
2023/12/02 13:29:04;;;;;;;;;;;0.60;99.90;;;;;;5048021;28;20055;-59
2023/12/02 13:31:34;;;;;;;;;;;0.60;99.90;;;;;;5048751;28;20016;-59
2023/12/02 13:34:25;;;;;;;;;;;0.60;99.90;;;;;;5052447;28;19933;-58
2023/12/02 13:36:53;;;;;;;;;;;0.60;99.90;;;;;;5047562;28;19924;-60
2023/12/02 13:39:24;;;;;;;;;;;0.50;99.90;;;;;;5050270;28;20052;-58
2023/12/02 13:41:52;;;;;;;;;;;0.50;99.90;;;;;;5047609;28;20403;-59
2023/12/02 13:44:21;;;;;;;;;;;0.60;99.90;;;;;;5049642;28;19925;-58
2023/12/02 13:46:51;;;;;;;;;;;0.50;99.90;;;;;;5058314;28;19928;-61
2023/12/02 13:49:23;;;;;;;;;;;0.50;99.90;;;;;;5054803;28;20623;-60
2023/12/02 13:52:03;;;;;;;;;;;0.40;99.90;;;;;;5051985;28;20015;-59
2023/12/02 13:54:49;;;;;;;;;;;0.40;99.90;;;;;;5051956;28;19924;-60
2023/12/02 13:57:22;;;;;;;;;;;0.50;99.90;;;;;;5048996;28;19933;-60
2023/12/02 13:59:52;;;;;;;;;;;0.50;99.90;;;;;;5051353;28;19936;-62
2023/12/02 14:02:34;;;;;;;;;;;0.50;99.90;;;;;;5048304;28;20604;-59
2023/12/02 14:05:08;;;;;;;;;;;0.50;99.90;;;;;;5049752;28;19936;-59
2023/12/02 14:07:46;;;;;;;;;;;0.50;99.90;;;;;;5050271;28;20006;-59
2023/12/02 14:10:15;;;;;;;;;;;0.50;99.90;;;;;;5044951;28;20282;-58
2023/12/02 14:12:52;;;;;;;;;;;0.50;99.90;;;;;;5046290;28;19925;-59
2023/12/02 14:15:38;;;;;;;;;;;0.50;99.90;;;;;;5047532;28;19928;-58
2023/12/02 14:18:18;;;;;;;;;;;0.50;99.90;;;;;;5049399;28;19967;-59
2023/12/02 14:21:03;;;;;;;;;;;0.50;99.90;;;;;;5050276;28;19935;-58
2023/12/02 14:23:44;;;;;;;;;;;0.50;99.90;;;;;;5049901;28;20476;-59
2023/12/02 14:26:13;;;;;;;;;;;0.50;99.90;;;;;;5045783;28;19928;-60
2023/12/02 14:28:51;;;;;;;;;;;0.50;99.90;;;;;;5051419;28;20428;-59
2023/12/02 14:31:27;;;;;;;;;;;0.50;99.90;;;;;;5045583;28;20358;-59
2023/12/02 14:34:13;;;;;;;;;;;0.50;99.90;;;;;;5051092;28;19928;-59
2023/12/02 14:36:54;;;;;;;;;;;0.40;99.90;;;;;;5049722;28;20018;-59
2023/12/02 14:39:39;;;;;;;;;;;0.40;99.90;;;;;;5053069;28;19955;-59
2023/12/02 14:42:11;;;;;;;;;;;0.40;99.90;;;;;;5046657;28;20304;-62
2023/12/02 14:44:40;;;;;;;;;;;0.30;99.90;;;;;;5051422;28;19929;-60